createdAt,value
2019-05-17T00:01:11.341Z,15.10
2019-05-17T00:03:42.686Z,16.37
2019-05-17T00:06:14.023Z,17.00
2019-05-17T00:08:47.357Z,16.13
2019-05-17T00:11:18.573Z,16.63
2019-05-17T00:13:49.997Z,18.13
2019-05-17T00:16:21.355Z,16.30
2019-05-17T00:18:52.706Z,16.80
2019-05-17T00:21:24.087Z,17.00
2019-05-17T00:23:57.217Z,17.67
2019-05-17T00:26:28.672Z,17.17
2019-05-17T00:29:00.115Z,15.87
2019-05-17T00:31:31.453Z,17.20
2019-05-17T00:34:02.836Z,17.43
2019-05-17T00:36:34.140Z,16.73
2019-05-17T00:39:07.425Z,17.07
2019-05-17T00:41:39.023Z,16.63
2019-05-17T00:44:10.537Z,16.27
2019-05-17T00:46:41.858Z,16.33
2019-05-17T00:49:13.599Z,15.27
2019-05-17T00:51:47.489Z,16.23
2019-05-17T00:54:19.931Z,16.00
2019-05-17T00:56:51.254Z,15.30
2019-05-17T00:59:22.587Z,14.27
2019-05-17T01:01:56.104Z,15.47
2019-05-17T01:04:27.588Z,14.60
2019-05-17T01:06:59.111Z,14.60
2019-05-17T01:09:30.531Z,15.10
2019-05-17T01:12:01.887Z,14.93
2019-05-17T01:14:33.318Z,13.73
2019-05-17T01:17:07.003Z,15.37
2019-05-17T01:19:38.029Z,14.47
2019-05-17T01:22:09.396Z,15.87
2019-05-17T01:24:41.793Z,14.53
2019-05-17T01:27:13.187Z,15.27
2019-05-17T01:29:46.500Z,14.93
2019-05-17T01:32:17.593Z,14.47
2019-05-17T01:34:48.999Z,13.63
2019-05-17T01:37:20.322Z,13.70
2019-05-17T01:39:51.798Z,14.00
2019-05-17T01:42:23.122Z,12.87
2019-05-17T01:44:56.631Z,14.57
2019-05-17T01:47:27.575Z,14.27
2019-05-17T01:49:58.949Z,15.33
2019-05-17T01:52:30.260Z,15.77
2019-05-17T01:55:01.644Z,15.90
2019-05-17T01:57:33.336Z,15.70
2019-05-17T02:00:06.462Z,14.33
2019-05-17T02:02:40.775Z,14.40
2019-05-17T02:05:13.602Z,15.27
2019-05-17T02:07:46.582Z,15.10
2019-05-17T02:10:19.905Z,13.83
2019-05-17T02:12:51.226Z,13.77
2019-05-17T02:15:22.962Z,13.80
2019-05-17T02:17:57.399Z,13.73
2019-05-17T02:20:28.825Z,12.90
2019-05-17T02:23:00.144Z,13.90
2019-05-17T02:25:31.506Z,12.47
2019-05-17T02:28:02.875Z,14.10
2019-05-17T02:30:34.254Z,14.97
2019-05-17T02:33:05.971Z,13.40
2019-05-17T02:35:37.314Z,13.43
2019-05-17T02:38:08.654Z,12.87
2019-05-17T02:40:42.826Z,13.50
2019-05-17T02:43:13.450Z,13.23
2019-05-17T02:45:44.859Z,12.73
2019-05-17T02:48:16.185Z,13.23
2019-05-17T02:50:48.615Z,13.43
2019-05-17T02:53:22.996Z,14.07
2019-05-17T02:55:53.948Z,13.87
2019-05-17T02:58:25.693Z,13.73
2019-05-17T03:00:57.191Z,13.97
2019-05-17T03:03:28.535Z,12.37
2019-05-17T03:06:02.866Z,14.00
2019-05-17T03:08:34.178Z,13.40
2019-05-17T03:11:05.999Z,11.80
2019-05-17T03:13:37.322Z,12.73
2019-05-17T03:16:08.688Z,12.57
2019-05-17T03:18:43.658Z,12.83
2019-05-17T03:21:13.575Z,13.23
2019-05-17T03:23:45.198Z,13.13
2019-05-17T03:26:18.603Z,12.27
2019-05-17T03:28:53.568Z,13.33
2019-05-17T03:31:26.539Z,14.40
2019-05-17T03:33:57.345Z,15.17
2019-05-17T03:36:28.817Z,23.07
2019-05-17T03:39:03.139Z,24.37
2019-05-17T03:41:34.203Z,28.93
2019-05-17T03:44:05.579Z,28.63
2019-05-17T03:46:36.925Z,31.30
2019-05-17T03:49:08.301Z,31.10
2019-05-17T03:51:42.368Z,29.13
2019-05-17T03:54:13.824Z,29.17
2019-05-17T03:56:46.014Z,25.87
2019-05-17T03:59:17.530Z,25.30
2019-05-17T04:01:48.917Z,23.43
2019-05-17T04:04:22.841Z,24.37
2019-05-17T04:06:53.614Z,24.93
2019-05-17T04:09:24.961Z,23.83
2019-05-17T04:11:56.355Z,23.77
2019-05-17T04:14:27.748Z,22.37
2019-05-17T04:16:59.158Z,20.87
2019-05-17T04:19:33.709Z,20.90
2019-05-17T04:22:04.094Z,21.20
2019-05-17T04:24:35.434Z,20.57
2019-05-17T04:27:06.816Z,21.53
2019-05-17T04:29:38.151Z,20.47
2019-05-17T04:32:12.685Z,21.87
2019-05-17T04:34:43.674Z,19.03
2019-05-17T04:37:15.311Z,19.47
2019-05-17T04:39:46.671Z,19.53
2019-05-17T04:42:18.034Z,19.17
2019-05-17T04:44:52.774Z,19.47
2019-05-17T04:47:23.565Z,19.87
2019-05-17T04:49:54.932Z,19.67
2019-05-17T04:52:26.313Z,19.93
2019-05-17T04:55:04.193Z,20.50
2019-05-17T04:57:33.952Z,20.67
2019-05-17T05:00:06.343Z,18.80
2019-05-17T05:02:37.728Z,17.60
2019-05-17T05:05:13.085Z,18.93
2019-05-17T05:07:43.428Z,18.83
2019-05-17T05:10:15.426Z,19.23
2019-05-17T05:12:46.747Z,20.50
2019-05-17T05:15:43.311Z,18.57
2019-05-17T05:18:14.005Z,19.33
2019-05-17T05:20:45.468Z,18.87
2019-05-17T05:23:16.817Z,19.90
2019-05-17T05:25:48.213Z,19.30
2019-05-17T05:28:22.363Z,17.77
2019-05-17T05:30:53.006Z,19.37
2019-05-17T05:33:24.422Z,17.63
2019-05-17T05:35:55.843Z,16.37
2019-05-17T05:38:27.251Z,17.80
2019-05-17T05:40:58.641Z,16.50
2019-05-17T05:43:32.424Z,17.10
2019-05-17T05:46:04.052Z,16.13
2019-05-17T05:48:35.454Z,16.10
2019-05-17T05:51:06.981Z,15.07
2019-05-17T05:53:38.376Z,16.30
2019-05-17T05:56:09.778Z,15.53
2019-05-17T05:58:42.838Z,16.10
2019-05-17T06:01:14.426Z,16.77
2019-05-17T06:03:45.886Z,15.37
2019-05-17T06:06:21.416Z,16.00
2019-05-17T06:08:52.076Z,16.87
2019-05-17T06:11:23.804Z,15.67
2019-05-17T06:13:55.202Z,15.67
2019-05-17T06:16:27.742Z,14.07
2019-05-17T06:18:59.121Z,14.03
2019-05-17T06:21:31.932Z,14.67
2019-05-17T06:24:03.459Z,14.17
2019-05-17T06:26:34.897Z,14.90
2019-05-17T06:29:11.653Z,14.63
2019-05-17T06:31:43.376Z,14.27
2019-05-17T06:34:15.064Z,14.13
2019-05-17T06:36:46.528Z,14.57
2019-05-17T06:39:17.924Z,13.93
2019-05-17T06:41:49.299Z,14.10
2019-05-17T06:44:21.792Z,14.97
2019-05-17T06:46:53.148Z,13.87
2019-05-17T06:49:24.619Z,13.10
2019-05-17T06:51:56.956Z,11.83
2019-05-17T06:54:28.348Z,13.37
2019-05-17T06:56:59.788Z,12.30
2019-05-17T06:59:32.216Z,13.17
2019-05-17T07:02:03.629Z,13.50
2019-05-17T07:04:35.060Z,12.67
2019-05-17T07:07:23.932Z,13.27
2019-05-17T07:09:55.972Z,11.77
2019-05-17T07:12:30.454Z,11.93
2019-05-17T07:15:02.120Z,11.83
2019-05-17T07:17:34.564Z,11.47
2019-05-17T07:20:06.505Z,10.97
2019-05-17T07:22:40.654Z,10.87
2019-05-17T07:25:11.568Z,9.57
2019-05-17T07:27:45.923Z,9.93
2019-05-17T07:30:19.471Z,9.40
2019-05-17T07:32:50.988Z,10.27
2019-05-17T07:35:22.340Z,9.17
2019-05-17T07:37:53.809Z,9.00
2019-05-17T07:40:25.292Z,9.37
2019-05-17T07:43:09.822Z,9.40
2019-05-17T07:45:29.766Z,8.30
2019-05-17T07:48:01.136Z,8.13
2019-05-17T07:50:32.546Z,7.73
2019-05-17T07:53:03.918Z,7.97
2019-05-17T07:55:35.314Z,8.87
2019-05-17T07:58:06.766Z,9.77
2019-05-17T08:00:39.940Z,7.63
2019-05-17T08:03:13.383Z,8.47
2019-05-17T08:05:44.322Z,7.40
2019-05-17T08:08:15.812Z,8.27
2019-05-17T08:10:47.184Z,6.70
2019-05-17T08:13:27.292Z,8.07
2019-05-17T08:15:51.603Z,7.23
2019-05-17T08:18:23.032Z,6.90
2019-05-17T08:20:54.410Z,7.27
2019-05-17T08:23:25.749Z,6.03
2019-05-17T08:26:00.063Z,6.97
2019-05-17T08:28:31.232Z,5.63
2019-05-17T08:31:02.880Z,6.57
2019-05-17T08:33:34.250Z,6.17
2019-05-17T08:36:05.578Z,5.57
2019-05-17T08:38:39.208Z,5.73
2019-05-17T08:41:11.488Z,4.80
2019-05-17T08:43:46.986Z,5.10
2019-05-17T08:46:15.951Z,4.97
2019-05-17T08:48:49.398Z,4.77
2019-05-17T08:51:20.589Z,4.50
2019-05-17T08:53:51.990Z,4.70
2019-05-17T08:56:23.323Z,4.00
2019-05-17T08:58:54.733Z,4.17
2019-05-17T09:01:26.163Z,4.23
2019-05-17T09:03:59.680Z,3.97
2019-05-17T09:06:30.601Z,4.03
2019-05-17T09:09:02.008Z,4.20
2019-05-17T09:11:34.887Z,3.87
2019-05-17T09:14:06.460Z,4.87
2019-05-17T09:16:40.079Z,4.70
2019-05-17T09:19:10.994Z,4.60
2019-05-17T09:21:42.325Z,5.13
2019-05-17T09:24:13.771Z,4.87
2019-05-17T09:26:45.137Z,4.33
2019-05-17T09:29:16.517Z,4.40
2019-05-17T09:31:50.373Z,4.37
2019-05-17T09:34:20.977Z,4.30
2019-05-17T09:36:52.337Z,4.17
2019-05-17T09:39:23.685Z,4.23
2019-05-17T09:41:55.095Z,4.13
2019-05-17T09:44:26.483Z,4.10
2019-05-17T09:46:59.512Z,4.43
2019-05-17T09:49:31.131Z,4.80
2019-05-17T09:52:02.637Z,4.30
2019-05-17T09:54:42.411Z,4.17
2019-05-17T09:57:09.742Z,3.57
2019-05-17T09:59:40.640Z,3.53
2019-05-17T10:02:12.809Z,3.97
2019-05-17T10:04:44.245Z,4.23
2019-05-17T10:07:15.618Z,3.70
2019-05-17T10:09:46.973Z,4.10
2019-05-17T10:12:20.284Z,3.87
2019-05-17T10:14:51.447Z,4.40
2019-05-17T10:17:22.813Z,5.03
2019-05-17T10:19:54.213Z,4.53
2019-05-17T10:22:25.599Z,4.30
2019-05-17T10:25:00.437Z,6.00
2019-05-17T10:27:34.422Z,4.20
2019-05-17T10:30:06.519Z,4.23
2019-05-17T10:32:40.732Z,4.20
2019-05-17T10:35:11.377Z,3.90
2019-05-17T10:37:42.739Z,4.10
2019-05-17T10:40:16.354Z,4.30
2019-05-17T10:42:49.869Z,3.67
2019-05-17T10:45:21.047Z,3.77
2019-05-17T10:47:52.414Z,7.57
2019-05-17T10:50:23.802Z,5.47
2019-05-17T10:53:00.213Z,4.27
2019-05-17T10:55:30.738Z,4.27
2019-05-17T10:58:02.176Z,4.17
2019-05-17T11:00:33.578Z,3.73
2019-05-17T11:03:05.039Z,3.80
2019-05-17T11:05:36.421Z,3.50
2019-05-17T11:08:10.311Z,3.40
2019-05-17T11:10:40.826Z,2.73
2019-05-17T11:13:12.218Z,2.87
2019-05-17T11:15:43.653Z,2.70
2019-05-17T11:18:15.063Z,2.80
2019-05-17T11:20:47.683Z,3.80
2019-05-17T11:23:19.172Z,4.05
2019-05-17T11:25:52.547Z,3.37
2019-05-17T11:28:23.604Z,2.75
2019-05-17T11:30:55.098Z,3.35
2019-05-17T11:33:26.475Z,3.22
2019-05-17T11:35:57.872Z,4.10
2019-05-17T11:38:29.264Z,3.52
2019-05-17T11:41:00.650Z,3.30
2019-05-17T11:43:32.043Z,3.40
2019-05-17T11:46:03.469Z,3.90
2019-05-17T11:48:34.884Z,3.95
2019-05-17T11:51:06.309Z,2.92
2019-05-17T11:53:37.704Z,2.30
2019-05-17T11:56:09.248Z,3.10
2019-05-17T11:58:40.602Z,2.37
2019-05-17T12:01:12.113Z,2.80
2019-05-17T12:03:43.477Z,2.80
2019-05-17T12:06:14.995Z,2.98
2019-05-17T12:08:46.364Z,3.08
2019-05-17T12:11:17.810Z,3.05
2019-05-17T12:13:49.231Z,3.45
2019-05-17T12:16:20.685Z,2.98
2019-05-17T12:18:52.132Z,3.60
2019-05-17T12:21:23.602Z,2.90
2019-05-17T12:23:55.027Z,3.08
2019-05-17T12:26:26.461Z,2.60
2019-05-17T12:28:57.923Z,2.90
2019-05-17T12:31:29.326Z,2.45
2019-05-17T12:34:09.945Z,2.92
2019-05-17T12:36:42.458Z,2.80
2019-05-17T12:39:13.871Z,2.83
2019-05-17T12:41:45.273Z,2.67
2019-05-17T12:44:16.652Z,2.72
2019-05-17T12:46:48.123Z,4.42
2019-05-17T12:49:22.278Z,2.70
2019-05-17T12:51:53.641Z,4.78
2019-05-17T12:54:25.058Z,3.98
2019-05-17T12:56:56.460Z,4.25
2019-05-17T12:59:27.826Z,6.25
2019-05-17T13:01:59.290Z,2.40
2019-05-17T13:04:30.661Z,2.42
2019-05-17T13:07:02.097Z,5.62
2019-05-17T13:09:33.482Z,4.58
2019-05-17T13:12:04.902Z,2.08
2019-05-17T13:14:36.248Z,2.47
2019-05-17T13:17:07.620Z,3.10
2019-05-17T13:19:39.057Z,4.95
2019-05-17T13:22:10.450Z,2.72
2019-05-17T13:24:41.832Z,2.55
2019-05-17T13:27:13.205Z,2.67
2019-05-17T13:29:44.596Z,2.33
2019-05-17T13:32:15.985Z,3.65
2019-05-17T13:34:47.331Z,2.47
2019-05-17T13:37:18.797Z,2.87
2019-05-17T13:39:52.607Z,2.33
2019-05-17T13:42:23.997Z,2.50
2019-05-17T13:44:55.394Z,2.77
2019-05-17T13:47:26.830Z,2.72
2019-05-17T13:49:58.209Z,3.05
2019-05-17T13:52:35.732Z,2.50
2019-05-17T13:55:07.809Z,2.25
2019-05-17T13:57:39.252Z,2.40
2019-05-17T14:00:11.139Z,1.67
2019-05-17T14:02:42.671Z,2.27
2019-05-17T14:05:14.271Z,2.20
2019-05-17T14:07:45.677Z,1.95
2019-05-17T14:10:26.995Z,1.77
2019-05-17T14:12:50.191Z,1.90
2019-05-17T14:15:21.746Z,1.85
2019-05-17T14:17:53.196Z,1.40
2019-05-17T14:20:24.575Z,1.82
2019-05-17T14:22:56.007Z,1.72
2019-05-17T14:25:27.435Z,1.90
2019-05-17T14:27:58.837Z,1.72
2019-05-17T14:30:30.236Z,1.55
2019-05-17T14:33:01.619Z,1.57
2019-05-17T14:35:33.059Z,1.77
2019-05-17T14:38:04.491Z,1.77
2019-05-17T14:41:04.760Z,1.55
2019-05-17T14:43:10.101Z,3.70
2019-05-17T14:45:43.608Z,6.28
2019-05-17T14:48:15.062Z,2.70
2019-05-17T14:50:46.441Z,2.30
2019-05-17T14:53:17.861Z,2.35
2019-05-17T14:55:49.262Z,1.80
2019-05-17T14:58:20.684Z,1.80
2019-05-17T15:00:55.354Z,1.72
2019-05-17T15:03:27.503Z,1.67
2019-05-17T15:06:00.217Z,1.60
2019-05-17T15:08:31.753Z,1.82
2019-05-17T15:11:03.133Z,1.50
2019-05-17T15:13:35.095Z,2.30
2019-05-17T15:16:06.693Z,2.40
2019-05-17T15:18:39.224Z,1.45
2019-05-17T15:21:10.645Z,1.90
2019-05-17T15:23:43.045Z,2.70
2019-05-17T15:26:14.715Z,1.90
2019-05-17T15:28:47.546Z,2.90
2019-05-17T15:31:19.003Z,1.85
2019-05-17T15:33:50.483Z,2.00
2019-05-17T15:36:21.934Z,1.92
2019-05-17T15:38:53.374Z,1.80
2019-05-17T15:41:24.782Z,2.37
2019-05-17T15:43:56.650Z,2.17
2019-05-17T15:46:28.084Z,1.80
2019-05-17T15:48:59.905Z,1.90
2019-05-17T15:51:31.328Z,2.17
2019-05-17T15:54:02.744Z,2.15
2019-05-17T15:56:34.130Z,1.87
2019-05-17T15:59:06.838Z,1.72
2019-05-17T16:01:38.260Z,2.08
2019-05-17T16:04:09.726Z,2.00
2019-05-17T16:06:41.141Z,2.05
2019-05-17T16:09:12.532Z,2.42
2019-05-17T16:11:43.901Z,9.40
2019-05-17T16:14:15.318Z,2.40
2019-05-17T16:16:46.731Z,2.70
2019-05-17T16:19:21.189Z,2.00
2019-05-17T16:21:52.662Z,2.10
2019-05-17T16:24:24.067Z,2.35
2019-05-17T16:26:55.545Z,1.98
2019-05-17T16:29:27.095Z,1.92
2019-05-17T16:31:58.541Z,2.70
2019-05-17T16:34:29.962Z,3.02
2019-05-17T16:37:04.039Z,2.25
2019-05-17T16:39:35.468Z,2.62
2019-05-17T16:42:06.843Z,2.62
2019-05-17T16:44:38.284Z,2.15
2019-05-17T16:47:12.348Z,2.77
2019-05-17T16:49:43.745Z,2.90
2019-05-17T16:52:15.120Z,3.05
2019-05-17T16:54:48.601Z,3.20
2019-05-17T16:57:19.974Z,2.33
2019-05-17T16:59:54.612Z,3.20
2019-05-17T17:02:26.030Z,3.50
2019-05-17T17:04:57.464Z,2.90
2019-05-17T17:07:28.851Z,3.33
2019-05-17T17:10:00.294Z,3.75
2019-05-17T17:12:31.671Z,3.70
2019-05-17T17:15:03.252Z,3.70
2019-05-17T17:17:33.913Z,2.90
2019-05-17T17:20:05.469Z,2.95
2019-05-17T17:22:36.879Z,2.92
2019-05-17T17:25:08.452Z,3.33
2019-05-17T17:27:39.941Z,2.55
2019-05-17T17:30:12.437Z,2.72
2019-05-17T17:32:46.614Z,2.70
2019-05-17T17:35:18.003Z,3.30
2019-05-17T17:37:49.579Z,3.08
2019-05-17T17:40:24.986Z,2.58
2019-05-17T17:42:56.376Z,2.60
2019-05-17T17:45:28.200Z,3.17
2019-05-17T17:47:59.714Z,2.72
2019-05-17T17:50:31.245Z,2.83
2019-05-17T17:53:02.884Z,2.87
2019-05-17T17:55:34.478Z,2.30
2019-05-17T17:58:05.937Z,2.70
2019-05-17T18:00:37.487Z,3.20
2019-05-17T18:03:11.136Z,2.77
2019-05-17T18:05:42.187Z,2.63
2019-05-17T18:08:13.605Z,2.60
2019-05-17T18:10:46.665Z,2.33
2019-05-17T18:13:18.266Z,2.33
2019-05-17T18:15:50.416Z,2.50
2019-05-17T18:18:22.075Z,2.17
2019-05-17T18:20:53.495Z,2.50
2019-05-17T18:23:24.930Z,3.33
2019-05-17T18:25:57.988Z,2.97
2019-05-17T18:28:29.737Z,2.80
2019-05-17T18:31:01.157Z,2.60
2019-05-17T18:33:32.703Z,2.50
2019-05-17T18:36:04.210Z,2.37
2019-05-17T18:38:36.782Z,2.53
2019-05-17T18:41:08.159Z,2.70
2019-05-17T18:43:39.536Z,2.30
2019-05-17T18:46:10.903Z,2.50
2019-05-17T18:48:42.399Z,2.30
2019-05-17T18:51:13.913Z,2.40
2019-05-17T18:53:45.716Z,2.90
2019-05-17T18:56:17.108Z,2.40
2019-05-17T18:58:48.480Z,3.03
2019-05-17T19:01:19.866Z,2.90
2019-05-17T19:03:51.343Z,2.53
2019-05-17T19:06:22.695Z,2.73
2019-05-17T19:08:54.061Z,2.30
2019-05-17T19:11:25.483Z,2.80
2019-05-17T19:13:57.012Z,2.80
2019-05-17T19:16:28.399Z,2.70
2019-05-17T19:18:59.879Z,2.87
2019-05-17T19:21:31.317Z,3.23
2019-05-17T19:24:02.770Z,2.40
2019-05-17T19:26:34.124Z,2.77
2019-05-17T19:29:05.558Z,2.87
2019-05-17T19:31:37.974Z,2.47
2019-05-17T19:34:09.415Z,2.37
2019-05-17T19:36:41.622Z,2.63
2019-05-17T19:39:13.330Z,3.10
2019-05-17T19:41:44.729Z,3.00
2019-05-17T19:44:16.150Z,3.00
2019-05-17T19:46:47.507Z,2.97
2019-05-17T19:49:18.880Z,2.90
2019-05-17T19:51:50.333Z,3.13
2019-05-17T19:54:21.745Z,3.10
2019-05-17T19:56:53.279Z,3.23
2019-05-17T19:59:25.773Z,3.13
2019-05-17T20:01:59.042Z,3.40
2019-05-17T20:04:30.434Z,3.47
2019-05-17T20:07:01.843Z,3.10
2019-05-17T20:09:33.256Z,3.37
2019-05-17T20:12:04.765Z,3.13
2019-05-17T20:14:36.181Z,3.43
2019-05-17T20:17:07.529Z,3.60
2019-05-17T20:19:38.877Z,3.10
2019-05-17T20:22:10.383Z,3.50
2019-05-17T20:24:41.783Z,3.37
2019-05-17T20:27:13.178Z,3.30
2019-05-17T20:29:44.664Z,3.50
2019-05-17T20:32:16.034Z,3.30
2019-05-17T20:34:47.505Z,3.50
2019-05-17T20:37:18.879Z,3.80
2019-05-17T20:39:50.301Z,3.17
2019-05-17T20:42:21.797Z,3.10
2019-05-17T20:44:53.253Z,3.57
2019-05-17T20:47:24.736Z,3.63
2019-05-17T20:49:56.095Z,3.57
2019-05-17T20:52:27.594Z,3.77
2019-05-17T20:54:59.252Z,3.73
2019-05-17T20:57:30.662Z,3.77
2019-05-17T21:00:02.475Z,4.00
2019-05-17T21:02:35.468Z,3.83
2019-05-17T21:05:07.596Z,4.00
2019-05-17T21:07:38.997Z,4.10
2019-05-17T21:10:13.122Z,4.17
2019-05-17T21:12:44.546Z,3.63
2019-05-17T21:15:16.354Z,3.83
2019-05-17T21:17:47.803Z,4.13
2019-05-17T21:20:19.920Z,3.67
2019-05-17T21:22:51.268Z,4.20
2019-05-17T21:25:22.653Z,4.23
2019-05-17T21:27:54.021Z,4.17
2019-05-17T21:30:25.431Z,4.43
2019-05-17T21:32:56.837Z,3.80
2019-05-17T21:35:28.267Z,4.30
2019-05-17T21:38:00.744Z,3.57
2019-05-17T21:40:33.136Z,3.97
2019-05-17T21:43:04.522Z,4.00
2019-05-17T21:45:37.023Z,3.77
2019-05-17T21:48:08.507Z,4.07
2019-05-17T21:50:39.899Z,4.27
2019-05-17T21:53:11.262Z,4.17
2019-05-17T21:55:42.674Z,3.67
2019-05-17T21:58:14.081Z,3.97
2019-05-17T22:01:18.103Z,3.77
2019-05-17T22:03:49.585Z,4.03
2019-05-17T22:06:21.065Z,4.53
2019-05-17T22:08:52.470Z,4.40
2019-05-17T22:11:23.912Z,4.30
2019-05-17T22:13:55.216Z,4.03
2019-05-17T22:16:26.937Z,4.20
2019-05-17T22:18:58.370Z,4.13
2019-05-17T22:21:29.849Z,4.23
2019-05-17T22:24:01.225Z,5.20
2019-05-17T22:26:32.584Z,4.90
2019-05-17T22:29:04.138Z,4.63
2019-05-17T22:31:38.760Z,4.20
2019-05-17T22:34:08.647Z,4.07
2019-05-17T22:36:40.023Z,4.43
2019-05-17T22:39:11.372Z,4.63
2019-05-17T22:41:42.748Z,4.60
2019-05-17T22:44:14.163Z,4.10
2019-05-17T22:46:45.583Z,4.37
2019-05-17T22:49:17.083Z,5.13
2019-05-17T22:51:48.479Z,4.90
2019-05-17T22:54:19.879Z,5.30
2019-05-17T22:56:51.270Z,5.90
2019-05-17T22:59:22.667Z,5.83
2019-05-17T23:01:54.009Z,6.07
2019-05-17T23:04:25.369Z,5.67
2019-05-17T23:06:56.812Z,5.97
2019-05-17T23:09:28.228Z,5.30
2019-05-17T23:11:59.588Z,5.87
2019-05-17T23:14:30.937Z,5.30
2019-05-17T23:17:02.358Z,5.20
2019-05-17T23:19:33.702Z,5.87
2019-05-17T23:22:05.361Z,5.40
2019-05-17T23:24:36.663Z,5.47
2019-05-17T23:27:08.018Z,5.40
2019-05-17T23:29:41.189Z,5.50
2019-05-17T23:32:12.439Z,5.43
2019-05-17T23:34:43.773Z,5.80
2019-05-17T23:37:15.212Z,6.77
2019-05-17T23:39:46.577Z,6.40
2019-05-17T23:42:17.947Z,5.50
2019-05-17T23:44:49.304Z,6.13
2019-05-17T23:47:20.641Z,6.93
2019-05-17T23:49:51.950Z,6.97
2019-05-17T23:52:23.343Z,6.80
2019-05-17T23:54:54.647Z,6.67
2019-05-17T23:57:26.006Z,7.40
2019-05-17T23:59:57.303Z,7.67
